createdAt,value
2017-11-13T00:01:16.824Z,97.36
2017-11-13T00:03:45.868Z,97.44
2017-11-13T00:06:14.923Z,96.44
2017-11-13T00:08:44.104Z,97.37
2017-11-13T00:11:13.123Z,97.76
2017-11-13T00:13:42.161Z,97.19
2017-11-13T00:16:11.203Z,97.87
2017-11-13T00:18:40.231Z,98.00
2017-11-13T00:21:09.274Z,97.38
2017-11-13T00:23:38.333Z,98.13
2017-11-13T00:26:07.349Z,98.22
2017-11-13T00:28:36.419Z,98.28
2017-11-13T00:31:05.456Z,98.81
2017-11-13T00:33:34.488Z,98.98
2017-11-13T00:36:03.543Z,98.01
2017-11-13T00:38:34.522Z,97.65
2017-11-13T00:41:03.621Z,97.46
2017-11-13T00:43:32.735Z,97.25
2017-11-13T00:46:01.776Z,96.65
2017-11-13T00:48:30.819Z,97.19
2017-11-13T00:50:59.850Z,97.21
2017-11-13T00:53:29.275Z,96.74
2017-11-13T00:55:59.232Z,96.28
2017-11-13T00:58:28.279Z,96.43
2017-11-13T01:00:57.548Z,96.04
2017-11-13T01:03:26.595Z,95.51
2017-11-13T01:05:55.631Z,95.66
2017-11-13T01:11:00.952Z,94.93
2017-11-13T01:13:30.554Z,95.04
2017-11-13T01:15:59.676Z,94.29
2017-11-13T01:18:28.708Z,94.03
2017-11-13T01:20:57.737Z,93.98
2017-11-13T01:23:30.583Z,93.85
2017-11-13T01:25:59.636Z,93.39
2017-11-13T01:28:28.683Z,94.08
2017-11-13T01:30:57.763Z,93.85
2017-11-13T01:33:26.812Z,93.31
2017-11-13T01:35:56.867Z,93.25
2017-11-13T01:38:25.874Z,93.49
2017-11-13T01:40:54.933Z,93.75
2017-11-13T01:43:23.973Z,93.25
2017-11-13T01:45:53.019Z,93.63
2017-11-13T01:48:22.042Z,93.67
2017-11-13T01:50:51.087Z,93.85
2017-11-13T01:53:20.127Z,93.65
2017-11-13T01:55:49.180Z,93.26
2017-11-13T01:58:18.199Z,93.30
2017-11-13T02:00:47.235Z,93.44
2017-11-13T02:03:16.304Z,93.45
2017-11-13T02:05:53.398Z,93.96
2017-11-13T02:08:22.591Z,93.43
2017-11-13T02:10:51.618Z,93.19
2017-11-13T02:13:20.668Z,93.60
2017-11-13T02:15:49.745Z,92.82
2017-11-13T02:18:18.816Z,93.39
2017-11-13T02:20:47.835Z,94.08
2017-11-13T02:23:16.888Z,93.59
2017-11-13T02:25:46.891Z,93.81
2017-11-13T02:28:15.941Z,94.03
2017-11-13T02:30:44.978Z,94.23
2017-11-13T02:33:14.008Z,93.28
2017-11-13T02:35:44.965Z,93.60
2017-11-13T02:38:14.035Z,93.54
2017-11-13T02:40:43.065Z,93.50
2017-11-13T02:43:12.139Z,93.32
2017-11-13T02:45:41.235Z,93.85
2017-11-13T02:50:45.515Z,93.87
2017-11-13T02:53:18.445Z,94.04
2017-11-13T02:55:47.508Z,94.75
2017-11-13T02:58:16.749Z,95.40
2017-11-13T03:00:45.772Z,95.66
2017-11-13T03:03:14.811Z,95.62
2017-11-13T03:05:43.997Z,95.68
2017-11-13T03:08:21.017Z,95.87
2017-11-13T03:10:50.252Z,96.14
2017-11-13T03:13:20.272Z,96.43
2017-11-13T03:15:49.311Z,96.01
2017-11-13T03:18:18.362Z,96.24
2017-11-13T03:20:47.435Z,96.13
2017-11-13T03:23:16.495Z,96.25
2017-11-13T03:25:45.516Z,96.41
2017-11-13T03:28:14.564Z,96.50
2017-11-13T03:30:43.605Z,96.59
2017-11-13T03:33:12.661Z,96.68
2017-11-13T03:35:41.709Z,96.75
2017-11-13T03:38:10.756Z,96.62
2017-11-13T03:40:39.816Z,96.24
2017-11-13T03:43:10.809Z,96.14
2017-11-13T03:45:39.840Z,96.25
2017-11-13T03:48:10.806Z,96.46
2017-11-13T03:50:39.860Z,96.58
2017-11-13T03:53:10.872Z,96.88
2017-11-13T03:55:40.936Z,96.38
2017-11-13T04:00:45.192Z,96.73
2017-11-13T04:03:14.236Z,96.56
2017-11-13T04:08:18.539Z,96.56
2017-11-13T04:10:47.586Z,96.49
2017-11-13T04:15:52.137Z,95.76
2017-11-13T04:18:21.159Z,96.15
2017-11-13T04:20:50.189Z,95.96
2017-11-13T04:25:55.539Z,96.01
2017-11-13T04:28:24.631Z,96.11
2017-11-13T04:30:53.682Z,96.29
2017-11-13T04:35:57.988Z,96.93
2017-11-13T04:38:27.007Z,97.12
2017-11-13T04:40:56.060Z,97.09
2017-11-13T04:43:27.247Z,96.58
2017-11-13T04:45:56.308Z,96.15
2017-11-13T04:48:25.367Z,96.22
2017-11-13T04:50:54.461Z,96.08
2017-11-13T04:53:23.511Z,96.10
2017-11-13T04:55:52.547Z,96.11
2017-11-13T04:58:22.581Z,96.27
2017-11-13T05:00:51.620Z,96.55
2017-11-13T05:03:20.692Z,96.95
2017-11-13T05:05:49.756Z,97.18
2017-11-13T05:08:19.789Z,96.66
2017-11-13T05:10:48.856Z,96.90
2017-11-13T05:13:21.567Z,96.67
2017-11-13T05:15:50.679Z,96.89
2017-11-13T05:18:19.715Z,97.24
2017-11-13T05:20:48.793Z,97.10
2017-11-13T05:23:18.898Z,96.99
2017-11-13T05:25:47.945Z,97.04
2017-11-13T05:28:18.009Z,96.90
2017-11-13T05:30:47.059Z,96.88
2017-11-13T05:33:17.440Z,97.08
2017-11-13T05:35:46.549Z,96.87
2017-11-13T05:38:17.599Z,96.79
2017-11-13T05:43:21.874Z,97.32
2017-11-13T05:45:50.957Z,96.65
2017-11-13T05:48:20.045Z,97.08
2017-11-13T05:50:49.083Z,97.08
2017-11-13T05:53:18.177Z,97.28
2017-11-13T05:55:47.221Z,97.30
2017-11-13T05:58:16.272Z,97.49
2017-11-13T06:00:45.333Z,97.56
2017-11-13T06:05:49.592Z,96.95
2017-11-13T06:08:18.639Z,96.81
2017-11-13T06:10:47.682Z,96.55
2017-11-13T06:13:17.680Z,96.44
2017-11-13T06:15:50.429Z,96.51
2017-11-13T06:18:20.531Z,96.41
2017-11-13T06:20:49.552Z,96.49
2017-11-13T06:23:18.614Z,96.53
2017-11-13T06:25:47.653Z,96.80
2017-11-13T06:28:17.709Z,97.01
2017-11-13T06:30:46.756Z,96.94
2017-11-13T06:33:15.816Z,97.02
2017-11-13T06:35:44.846Z,97.04
2017-11-13T06:38:13.935Z,97.16
2017-11-13T06:43:18.048Z,96.89
2017-11-13T06:45:47.109Z,96.84
2017-11-13T06:48:17.266Z,96.76
2017-11-13T06:50:46.309Z,96.88
2017-11-13T06:53:17.308Z,96.75
2017-11-13T06:55:46.351Z,96.60
2017-11-13T06:58:15.434Z,96.46
2017-11-13T07:00:44.481Z,96.52
2017-11-13T07:05:50.752Z,96.71
2017-11-13T07:10:55.056Z,96.92
2017-11-13T07:13:25.013Z,96.74
2017-11-13T07:15:54.057Z,96.32
2017-11-13T07:18:23.940Z,96.44
2017-11-13T07:20:52.972Z,96.59
2017-11-13T07:23:25.731Z,96.82
2017-11-13T07:25:54.828Z,96.73
2017-11-13T07:28:24.863Z,96.60
2017-11-13T07:30:53.933Z,96.78
2017-11-13T07:33:26.945Z,97.22
2017-11-13T07:35:55.992Z,97.16
2017-11-13T07:38:27.060Z,97.36
2017-11-13T07:40:56.096Z,97.47
2017-11-13T07:43:27.112Z,97.47
2017-11-13T07:45:56.178Z,97.51
2017-11-13T07:48:25.230Z,97.29
2017-11-13T07:50:58.047Z,97.21
2017-11-13T07:53:27.135Z,97.55
2017-11-13T07:55:58.136Z,97.57
2017-11-13T07:58:27.232Z,97.39
2017-11-13T08:00:56.264Z,97.63
2017-11-13T08:03:25.316Z,97.71
2017-11-13T08:08:32.928Z,96.36
2017-11-13T08:11:02.311Z,96.60
2017-11-13T08:13:31.369Z,96.21
2017-11-13T08:16:02.800Z,96.44
2017-11-13T08:18:32.007Z,96.25
2017-11-13T08:23:37.513Z,96.42
2017-11-13T08:26:08.471Z,96.21
2017-11-13T08:28:37.592Z,96.61
2017-11-13T08:31:06.644Z,96.55
2017-11-13T08:33:35.706Z,96.34
2017-11-13T08:38:40.139Z,95.65
2017-11-13T08:43:45.449Z,96.03
2017-11-13T08:46:15.439Z,95.43
2017-11-13T08:48:44.553Z,95.00
2017-11-13T08:51:17.231Z,94.65
2017-11-13T08:53:47.260Z,94.32
2017-11-13T08:56:16.296Z,94.55
2017-11-13T08:58:45.356Z,94.04
2017-11-13T09:01:16.301Z,94.60
2017-11-13T09:03:51.043Z,94.40
2017-11-13T09:06:20.075Z,93.57
2017-11-13T09:08:49.130Z,93.21
2017-11-13T09:11:18.168Z,94.13
2017-11-13T09:13:48.218Z,93.50
2017-11-13T09:16:17.384Z,93.17
2017-11-13T09:18:46.473Z,93.96
2017-11-13T09:21:16.426Z,93.11
2017-11-13T09:23:45.488Z,92.70
2017-11-13T09:28:49.666Z,93.55
2017-11-13T09:31:18.722Z,93.18
2017-11-13T09:33:49.797Z,91.75
2017-11-13T09:36:18.836Z,92.79
2017-11-13T09:38:47.893Z,92.45
2017-11-13T09:41:16.953Z,91.39
2017-11-13T09:43:47.645Z,92.81
2017-11-13T09:46:18.114Z,91.67
2017-11-13T09:48:55.981Z,92.02
2017-11-13T09:51:26.151Z,91.52
2017-11-13T09:53:57.151Z,90.40
2017-11-13T09:56:27.925Z,89.61
2017-11-13T09:58:58.109Z,90.49
2017-11-13T10:01:29.560Z,90.24
2017-11-13T10:03:59.486Z,89.93
2017-11-13T10:06:28.529Z,89.70
2017-11-13T10:08:58.604Z,89.74
2017-11-13T10:11:30.079Z,89.11
2017-11-13T10:13:59.891Z,86.59
2017-11-13T10:16:28.960Z,86.83
2017-11-13T10:21:34.632Z,86.00
2017-11-13T10:24:05.856Z,86.37
2017-11-13T10:26:34.891Z,86.84
2017-11-13T10:31:43.235Z,87.16
2017-11-13T10:34:14.871Z,85.78
2017-11-13T10:36:44.934Z,86.20
2017-11-13T10:39:14.015Z,85.51
2017-11-13T10:41:44.252Z,84.83
2017-11-13T10:44:14.125Z,85.35
2017-11-13T10:46:43.140Z,83.87
2017-11-13T10:49:15.195Z,84.74
2017-11-13T10:51:45.432Z,85.37
2017-11-13T10:54:14.439Z,85.16
2017-11-13T10:56:45.405Z,85.30
2017-11-13T10:59:16.367Z,85.28
2017-11-13T11:01:47.843Z,84.99
2017-11-13T11:04:17.951Z,84.28
2017-11-13T11:06:47.503Z,84.60
2017-11-13T11:09:17.610Z,85.54
2017-11-13T11:11:46.630Z,86.21
2017-11-13T11:19:49.137Z,82.41
2017-11-13T11:22:18.316Z,81.80
2017-11-13T11:27:27.016Z,81.65
2017-11-13T11:32:35.492Z,78.43
2017-11-13T11:37:49.413Z,78.44
2017-11-13T11:40:19.175Z,77.52
2017-11-13T11:42:49.199Z,74.71
2017-11-13T11:45:23.832Z,73.20
2017-11-13T11:47:53.652Z,74.21
2017-11-13T11:50:22.856Z,74.37
2017-11-13T11:52:51.892Z,74.59
2017-11-13T11:55:36.001Z,74.40
2017-11-13T11:58:06.048Z,75.14
2017-11-13T12:00:35.078Z,72.53
2017-11-13T12:03:09.695Z,74.91
2017-11-13T12:05:39.879Z,75.29
2017-11-13T12:08:08.929Z,72.52
2017-11-13T12:10:37.961Z,68.61
2017-11-13T12:13:10.606Z,70.27
2017-11-13T12:15:40.669Z,60.61
2017-11-13T12:18:09.707Z,67.94
2017-11-13T12:20:42.219Z,68.39
2017-11-13T12:23:12.088Z,64.24
2017-11-13T12:25:41.095Z,70.40
2017-11-13T12:28:12.650Z,67.48
2017-11-13T12:33:16.889Z,67.50
2017-11-13T12:35:47.049Z,69.06
2017-11-13T12:38:16.286Z,71.99
2017-11-13T12:40:45.428Z,72.70
2017-11-13T12:43:14.617Z,71.83
2017-11-13T12:45:45.624Z,73.19
2017-11-13T12:48:15.738Z,70.78
2017-11-13T12:50:47.291Z,73.12
2017-11-13T12:53:17.459Z,73.67
2017-11-13T12:55:49.451Z,74.36
2017-11-13T12:58:19.303Z,77.37
2017-11-13T13:03:27.214Z,74.79
2017-11-13T13:08:37.184Z,73.72
2017-11-13T13:11:12.764Z,74.14
2017-11-13T13:13:45.366Z,74.46
2017-11-13T13:16:18.577Z,75.22
2017-11-13T13:18:56.047Z,74.08
2017-11-13T13:21:26.658Z,75.11
2017-11-13T13:24:01.892Z,75.70
2017-11-13T13:26:34.506Z,76.70
2017-11-13T13:29:09.613Z,76.33
2017-11-13T13:31:39.584Z,77.04
2017-11-13T13:39:23.282Z,77.94
2017-11-13T13:44:30.049Z,76.03
2017-11-13T13:46:59.063Z,76.28
2017-11-13T13:49:28.092Z,76.09
2017-11-13T13:51:59.268Z,77.50
2017-11-13T13:54:29.123Z,78.03
2017-11-13T13:59:33.414Z,78.26
2017-11-13T14:02:08.267Z,77.17
2017-11-13T14:04:41.420Z,75.54
2017-11-13T14:07:11.419Z,76.15
2017-11-13T14:09:40.507Z,76.48
2017-11-13T14:12:10.563Z,76.54
2017-11-13T14:14:39.600Z,77.39
2017-11-13T14:17:11.795Z,77.86
2017-11-13T14:19:48.140Z,77.30
2017-11-13T14:22:18.550Z,75.22
2017-11-13T14:24:47.615Z,76.73
2017-11-13T14:27:17.722Z,76.50
2017-11-13T14:29:47.917Z,76.43
2017-11-13T14:32:16.971Z,76.64
2017-11-13T14:37:21.363Z,77.86
2017-11-13T14:39:56.116Z,78.92
2017-11-13T14:42:25.211Z,78.12
2017-11-13T14:44:55.540Z,78.63
2017-11-13T14:47:24.543Z,79.11
2017-11-13T14:49:57.923Z,78.92
2017-11-13T14:52:27.546Z,79.15
2017-11-13T14:57:33.808Z,79.87
2017-11-13T15:00:07.645Z,80.62
2017-11-13T15:02:40.394Z,81.51
2017-11-13T15:05:10.329Z,82.06
2017-11-13T15:07:40.358Z,81.96
2017-11-13T15:10:11.419Z,82.32
2017-11-13T15:12:40.797Z,82.61
2017-11-13T15:17:45.102Z,83.67
2017-11-13T15:20:14.139Z,83.61
2017-11-13T15:22:43.268Z,84.15
2017-11-13T15:25:12.385Z,84.29
2017-11-13T15:27:41.400Z,85.05
2017-11-13T15:30:10.504Z,84.67
2017-11-13T15:32:39.593Z,84.95
2017-11-13T15:35:08.642Z,85.07
2017-11-13T15:40:12.956Z,84.94
2017-11-13T15:42:41.979Z,85.19
2017-11-13T15:45:12.004Z,84.81
2017-11-13T15:47:42.037Z,85.04
2017-11-13T15:50:12.060Z,85.15
2017-11-13T15:52:41.089Z,85.63
2017-11-13T15:57:45.189Z,85.31
2017-11-13T16:00:14.287Z,85.73
2017-11-13T16:02:43.302Z,86.85
2017-11-13T16:05:14.428Z,87.32
2017-11-13T16:07:47.413Z,88.19
2017-11-13T16:10:16.450Z,87.95
2017-11-13T16:12:45.499Z,88.31
2017-11-13T16:15:15.663Z,88.94
2017-11-13T16:17:44.688Z,88.99
2017-11-13T16:20:13.727Z,88.52
2017-11-13T16:22:42.775Z,88.72
2017-11-13T16:25:13.964Z,88.79
2017-11-13T16:27:43.271Z,89.04
2017-11-13T16:30:12.311Z,88.82
2017-11-13T16:32:41.409Z,89.08
2017-11-13T16:35:11.408Z,88.33
2017-11-13T16:37:40.545Z,87.41
2017-11-13T16:40:12.319Z,88.17
2017-11-13T16:42:41.373Z,88.60
2017-11-13T16:45:10.429Z,88.27
2017-11-13T16:47:40.584Z,88.16
2017-11-13T16:50:10.609Z,88.27
2017-11-13T16:52:41.707Z,89.22
2017-11-13T16:55:11.653Z,88.51
2017-11-13T16:57:40.691Z,88.16
2017-11-13T17:00:09.804Z,88.56
2017-11-13T17:02:38.846Z,88.72
2017-11-13T17:07:43.168Z,89.42
2017-11-13T17:10:13.211Z,90.19
2017-11-13T17:12:45.819Z,90.47
2017-11-13T17:15:15.811Z,91.35
2017-11-13T17:17:44.847Z,91.37
2017-11-13T17:20:14.991Z,90.20
2017-11-13T17:22:44.035Z,89.79
2017-11-13T17:25:17.153Z,90.11
2017-11-13T17:27:47.150Z,89.02
2017-11-13T17:30:16.189Z,88.83
2017-11-13T17:32:45.299Z,88.65
2017-11-13T17:37:49.404Z,88.98
2017-11-13T17:40:19.262Z,88.98
2017-11-13T17:42:48.508Z,89.28
2017-11-13T17:45:17.578Z,90.32
2017-11-13T17:47:46.624Z,90.21
2017-11-13T17:50:16.573Z,90.67
2017-11-13T17:52:45.629Z,89.66
2017-11-13T17:55:15.645Z,90.96
2017-11-13T17:57:44.676Z,91.60
2017-11-13T18:00:14.655Z,91.24
2017-11-13T18:02:43.770Z,90.51
2017-11-13T18:05:12.816Z,90.92
2017-11-13T18:07:41.975Z,90.54
2017-11-13T18:10:12.072Z,90.36
2017-11-13T18:12:41.105Z,90.31
2017-11-13T18:15:12.119Z,90.12
2017-11-13T18:17:41.191Z,90.18
2017-11-13T18:20:10.238Z,90.10
2017-11-13T18:22:40.240Z,89.91
2017-11-13T18:25:09.337Z,90.53
2017-11-13T18:27:38.368Z,91.03
2017-11-13T18:30:07.456Z,91.20
2017-11-13T18:32:36.524Z,90.11
2017-11-13T18:35:05.556Z,90.30
2017-11-13T18:37:34.845Z,90.54
2017-11-13T18:40:05.793Z,89.87
2017-11-13T18:42:34.833Z,90.55
2017-11-13T18:45:04.803Z,90.12
2017-11-13T18:47:33.858Z,90.91
2017-11-13T18:50:02.942Z,90.95
2017-11-13T18:52:31.991Z,90.72
2017-11-13T18:55:02.050Z,91.40
2017-11-13T18:57:31.092Z,91.04
2017-11-13T19:00:00.280Z,91.50
2017-11-13T19:02:29.426Z,91.91
2017-11-13T19:04:58.467Z,91.43
2017-11-13T19:07:27.506Z,91.41
2017-11-13T19:09:56.640Z,91.50
2017-11-13T19:12:32.944Z,91.52
2017-11-13T19:17:39.301Z,92.57
2017-11-13T19:20:08.377Z,92.64
2017-11-13T19:22:41.416Z,92.52
2017-11-13T19:25:12.679Z,92.73
2017-11-13T19:27:44.148Z,92.42
2017-11-13T19:30:14.444Z,92.03
2017-11-13T19:32:49.165Z,91.91
2017-11-13T19:35:20.481Z,91.66
2017-11-13T19:37:49.795Z,91.32
2017-11-13T19:40:19.089Z,91.69
2017-11-13T19:42:49.292Z,91.14
2017-11-13T19:45:18.348Z,90.85
2017-11-13T19:47:47.391Z,91.12
2017-11-13T19:50:17.593Z,90.84
2017-11-13T19:55:26.788Z,90.46
2017-11-13T19:57:56.973Z,90.42
2017-11-13T20:00:27.928Z,90.78
2017-11-13T20:02:58.153Z,90.56
2017-11-13T20:05:27.183Z,90.59
2017-11-13T20:07:56.454Z,90.94
2017-11-13T20:10:25.670Z,90.51
2017-11-13T20:12:54.893Z,90.60
2017-11-13T20:15:24.592Z,90.60
2017-11-13T20:17:57.391Z,90.52
2017-11-13T20:20:26.465Z,90.46
2017-11-13T20:22:55.514Z,90.96
2017-11-13T20:25:24.842Z,91.21
2017-11-13T20:27:53.899Z,91.39
2017-11-13T20:30:23.152Z,91.24
2017-11-13T20:35:28.730Z,91.31
2017-11-13T20:37:59.082Z,91.35
2017-11-13T20:40:28.119Z,91.44
2017-11-13T20:42:58.302Z,91.38
2017-11-13T20:45:27.331Z,91.30
2017-11-13T20:47:56.388Z,91.29
2017-11-13T20:50:25.497Z,91.09
2017-11-13T20:52:57.696Z,91.09
2017-11-13T20:55:27.645Z,91.33
2017-11-13T20:58:04.520Z,91.58
2017-11-13T21:00:33.620Z,91.72
2017-11-13T21:03:02.676Z,91.86
2017-11-13T21:05:31.718Z,92.00
2017-11-13T21:08:00.857Z,92.19
2017-11-13T21:10:29.919Z,92.54
2017-11-13T21:12:59.961Z,93.84
2017-11-13T21:15:29.163Z,93.92
2017-11-13T21:20:34.404Z,93.52
2017-11-13T21:23:03.491Z,92.52
2017-11-13T21:25:32.548Z,92.24
2017-11-13T21:28:02.542Z,92.71
2017-11-13T21:30:31.596Z,92.47
2017-11-13T21:33:01.694Z,92.76
2017-11-13T21:35:30.776Z,92.17
2017-11-13T21:37:59.802Z,91.94
2017-11-13T21:40:28.835Z,92.41
2017-11-13T21:42:57.888Z,91.82
2017-11-13T21:45:26.948Z,92.09
2017-11-13T21:47:58.778Z,91.72
2017-11-13T21:50:28.863Z,91.77
2017-11-13T21:53:01.739Z,91.53
2017-11-13T21:55:36.574Z,91.65
2017-11-13T22:00:41.929Z,92.67
2017-11-13T22:05:47.389Z,92.84
2017-11-13T22:08:16.450Z,93.51
2017-11-13T22:10:47.449Z,93.64
2017-11-13T22:13:16.547Z,94.19
2017-11-13T22:15:45.627Z,94.39
2017-11-13T22:18:15.672Z,94.72
2017-11-13T22:20:46.819Z,93.94
2017-11-13T22:23:16.550Z,94.87
2017-11-13T22:25:45.639Z,94.74
2017-11-13T22:28:14.692Z,94.72
2017-11-13T22:30:43.749Z,93.78
2017-11-13T22:33:12.788Z,94.74
2017-11-13T22:35:41.841Z,94.97
2017-11-13T22:38:11.858Z,95.08
2017-11-13T22:40:40.891Z,95.03
2017-11-13T22:43:10.862Z,95.42
2017-11-13T22:45:39.909Z,95.83
2017-11-13T22:48:08.954Z,95.96
2017-11-13T22:53:13.262Z,96.97
2017-11-13T22:55:42.319Z,97.06
2017-11-13T22:58:11.361Z,96.67
2017-11-13T23:00:40.412Z,96.92
2017-11-13T23:03:09.454Z,97.53
2017-11-13T23:05:45.139Z,97.31
2017-11-13T23:08:14.455Z,97.06
2017-11-13T23:10:43.504Z,96.87
2017-11-13T23:13:12.558Z,96.57
2017-11-13T23:15:41.594Z,96.25
2017-11-13T23:18:11.557Z,96.01
2017-11-13T23:20:41.513Z,95.94
2017-11-13T23:23:11.496Z,96.17
2017-11-13T23:25:40.563Z,95.97
2017-11-13T23:28:09.613Z,96.06
2017-11-13T23:30:39.907Z,96.10
2017-11-13T23:33:08.948Z,96.28
2017-11-13T23:38:13.892Z,96.42
2017-11-13T23:40:42.899Z,96.85
2017-11-13T23:43:12.084Z,96.69
2017-11-13T23:45:41.115Z,96.46
2017-11-13T23:48:10.169Z,96.74
2017-11-13T23:50:39.359Z,96.59
2017-11-13T23:53:08.375Z,96.75
